<?xml version='1.0' encoding='UTF-8'?><gpx version="1.1" creator="JPX - https://github.com/jenetics/jpx" xmlns="http://www.topografix.com/GPX/1/1"><trk><trkseg><trkpt lat="42.6652937" lon="12.7331725"><ele>659.0</ele><time>2026-04-10T14:45:36.727Z</time></trkpt><trkpt lat="42.665235" lon="12.7332208"><ele>659.0</ele><time>2026-04-10T14:45:42.731Z</time></trkpt><trkpt lat="42.6651667" lon="12.7332384"><ele>659.0</ele><time>2026-04-10T14:45:51.731Z</time></trkpt><trkpt lat="42.6651273" lon="12.7333101"><ele>659.0</ele><time>2026-04-10T14:45:56.731Z</time></trkpt><trkpt lat="42.6651327" lon="12.7334136"><ele>659.0</ele><time>2026-04-10T14:45:59.758Z</time></trkpt><trkpt lat="42.6651992" lon="12.7334423"><ele>659.0</ele><time>2026-04-10T14:46:02.781Z</time></trkpt><trkpt lat="42.6652799" lon="12.7334356"><ele>659.0</ele><time>2026-04-10T14:46:06.731Z</time></trkpt><trkpt lat="42.6653407" lon="12.7334743"><ele>658.5714285714286</ele><time>2026-04-10T14:46:09.731Z</time></trkpt><trkpt lat="42.6653455" lon="12.733562"><ele>658.1428571428571</ele><time>2026-04-10T14:46:13.73Z</time></trkpt><trkpt lat="42.665415" lon="12.7336258"><ele>657.7142857142857</ele><time>2026-04-10T14:46:42.731Z</time></trkpt><trkpt lat="42.6654734" lon="12.7336865"><ele>657.2857142857142</ele><time>2026-04-10T14:46:45.805Z</time></trkpt><trkpt lat="42.6655225" lon="12.7337548"><ele>656.8571428571429</ele><time>2026-04-10T14:46:48.73Z</time></trkpt><trkpt lat="42.6655781" lon="12.7338252"><ele>656.4285714285713</ele><time>2026-04-10T14:46:51.805Z</time></trkpt><trkpt lat="42.6656249" lon="12.7338882"><ele>656.0</ele><time>2026-04-10T14:46:57.731Z</time></trkpt><trkpt lat="42.6656876" lon="12.7339298"><ele>655.9999999999999</ele><time>2026-04-10T14:47:02.731Z</time></trkpt><trkpt lat="42.6657621" lon="12.7338967"><ele>656.0</ele><time>2026-04-10T14:47:06.731Z</time></trkpt><trkpt lat="42.6658041" lon="12.7338303"><ele>656.0</ele><time>2026-04-10T14:47:11.746Z</time></trkpt><trkpt lat="42.6657877" lon="12.7337337"><ele>656.0</ele><time>2026-04-10T14:47:15.75Z</time></trkpt><trkpt lat="42.6657502" lon="12.7336617"><ele>656.0</ele><time>2026-04-10T14:47:18.731Z</time></trkpt><trkpt lat="42.6656897" lon="12.7336337"><ele>655.9999999999999</ele><time>2026-04-10T14:47:25.731Z</time></trkpt><trkpt lat="42.6656149" lon="12.7336098"><ele>656.0</ele><time>2026-04-10T14:47:28.748Z</time></trkpt><trkpt lat="42.6655619" lon="12.7335433"><ele>655.9999999999999</ele><time>2026-04-10T14:47:32.731Z</time></trkpt><trkpt lat="42.6655871" lon="12.7334641"><ele>656.0</ele><time>2026-04-10T14:47:39.814Z</time></trkpt><trkpt lat="42.6656621" lon="12.7334687"><ele>656.0</ele><time>2026-04-10T14:47:44.793Z</time></trkpt><trkpt lat="42.6657192" lon="12.7335276"><ele>656.0</ele><time>2026-04-10T14:47:49.73Z</time></trkpt><trkpt lat="42.6657622" lon="12.7336071"><ele>656.0</ele><time>2026-04-10T14:47:54.73Z</time></trkpt><trkpt lat="42.6658173" lon="12.7336807"><ele>655.9999999999999</ele><time>2026-04-10T14:48:01.734Z</time></trkpt><trkpt lat="42.665879" lon="12.7337297"><ele>656.0</ele><time>2026-04-10T14:48:08.715Z</time></trkpt><trkpt lat="42.6659232" lon="12.7336631"><ele>655.9999999999999</ele><time>2026-04-10T14:48:19.731Z</time></trkpt><trkpt lat="42.6659292" lon="12.733571"><ele>656.0</ele><time>2026-04-10T14:48:26.731Z</time></trkpt><trkpt lat="42.665902" lon="12.7334917"><ele>656.0</ele><time>2026-04-10T14:48:33.731Z</time></trkpt><trkpt lat="42.6658295" lon="12.733495"><ele>656.0</ele><time>2026-04-10T14:49:11.731Z</time></trkpt><trkpt lat="42.6657696" lon="12.7334658"><ele>656.0</ele><time>2026-04-10T14:49:16.731Z</time></trkpt><trkpt lat="42.6657123" lon="12.7334264"><ele>655.9999999999999</ele><time>2026-04-10T14:49:23.731Z</time></trkpt><trkpt lat="42.6656861" lon="12.7333474"><ele>656.0</ele><time>2026-04-10T14:49:33.741Z</time></trkpt><trkpt lat="42.6656881" lon="12.7332597"><ele>656.4285714285713</ele><time>2026-04-10T14:49:38.633Z</time></trkpt><trkpt lat="42.6656667" lon="12.7331786"><ele>656.8571428571429</ele><time>2026-04-10T14:49:45.765Z</time></trkpt><trkpt lat="42.6656672" lon="12.7330844"><ele>657.2857142857142</ele><time>2026-04-10T14:49:54.731Z</time></trkpt><trkpt lat="42.6656643" lon="12.7329986"><ele>657.7142857142857</ele><time>2026-04-10T14:50:04.644Z</time></trkpt><trkpt lat="42.6656201" lon="12.7329363"><ele>658.1428571428571</ele><time>2026-04-10T14:50:09.731Z</time></trkpt><trkpt lat="42.6656019" lon="12.7328516"><ele>658.5714285714286</ele><time>2026-04-10T14:50:16.731Z</time></trkpt><trkpt lat="42.6656593" lon="12.7328985"><ele>659.0</ele><time>2026-04-10T14:50:33.731Z</time></trkpt><trkpt lat="42.665688" lon="12.7329818"><ele>659.0</ele><time>2026-04-10T14:50:39.731Z</time></trkpt><trkpt lat="42.6657564" lon="12.7329936"><ele>659.0</ele><time>2026-04-10T14:50:58.731Z</time></trkpt><trkpt lat="42.6658187" lon="12.732947"><ele>659.0</ele><time>2026-04-10T14:51:04.731Z</time></trkpt><trkpt lat="42.6658634" lon="12.7328843"><ele>659.0</ele><time>2026-04-10T14:51:16.795Z</time></trkpt><trkpt lat="42.6658968" lon="12.7328071"><ele>659.0</ele><time>2026-04-10T14:51:21.731Z</time></trkpt><trkpt lat="42.6659415" lon="12.7327341"><ele>659.0</ele><time>2026-04-10T14:51:27.731Z</time></trkpt><trkpt lat="42.6660116" lon="12.7327383"><ele>659.0</ele><time>2026-04-10T14:51:34.731Z</time></trkpt><trkpt lat="42.6660841" lon="12.7327501"><ele>656.8571428571429</ele><time>2026-04-10T14:52:10.731Z</time></trkpt><trkpt lat="42.6661476" lon="12.7327516"><ele>654.7142857142857</ele><time>2026-04-10T14:52:16.73Z</time></trkpt><trkpt lat="42.6662108" lon="12.7327481"><ele>652.5714285714286</ele><time>2026-04-10T14:52:22.671Z</time></trkpt><trkpt lat="42.6662754" lon="12.7327228"><ele>650.4285714285714</ele><time>2026-04-10T14:52:28.731Z</time></trkpt><trkpt lat="42.6663384" lon="12.7327633"><ele>648.2857142857142</ele><time>2026-04-10T14:52:35.731Z</time></trkpt><trkpt lat="42.6664024" lon="12.7328009"><ele>646.1428571428571</ele><time>2026-04-10T14:52:41.648Z</time></trkpt><trkpt lat="42.6664507" lon="12.7328576"><ele>644.0</ele><time>2026-04-10T14:52:47.731Z</time></trkpt><trkpt lat="42.6665156" lon="12.7329131"><ele>644.0</ele><time>2026-04-10T14:52:53.731Z</time></trkpt><trkpt lat="42.6665688" lon="12.7329598"><ele>644.0</ele><time>2026-04-10T14:52:57.731Z</time></trkpt><trkpt lat="42.6666258" lon="12.7330062"><ele>644.0</ele><time>2026-04-10T14:53:02.731Z</time></trkpt><trkpt lat="42.6666855" lon="12.7330411"><ele>644.0</ele><time>2026-04-10T14:53:08.73Z</time></trkpt><trkpt lat="42.6667578" lon="12.733031"><ele>644.0</ele><time>2026-04-10T14:53:14.75Z</time></trkpt><trkpt lat="42.6668215" lon="12.732979"><ele>644.0</ele><time>2026-04-10T14:53:19.731Z</time></trkpt><trkpt lat="42.6668942" lon="12.7329755"><ele>644.0</ele><time>2026-04-10T14:53:26.784Z</time></trkpt><trkpt lat="42.6669396" lon="12.7328912"><ele>644.7142857142857</ele><time>2026-04-10T14:53:32.731Z</time></trkpt><trkpt lat="42.6669474" lon="12.7327901"><ele>645.4285714285714</ele><time>2026-04-10T14:53:37.636Z</time></trkpt><trkpt lat="42.6669459" lon="12.7326895"><ele>646.1428571428571</ele><time>2026-04-10T14:53:44.73Z</time></trkpt><trkpt lat="42.6669795" lon="12.7326001"><ele>646.8571428571429</ele><time>2026-04-10T14:53:51.731Z</time></trkpt><trkpt lat="42.6670132" lon="12.7325179"><ele>647.5714285714286</ele><time>2026-04-10T14:53:58.731Z</time></trkpt><trkpt lat="42.6670424" lon="12.7324399"><ele>648.2857142857142</ele><time>2026-04-10T14:54:04.731Z</time></trkpt><trkpt lat="42.6670789" lon="12.7323576"><ele>649.0</ele><time>2026-04-10T14:54:11.731Z</time></trkpt><trkpt lat="42.6671366" lon="12.7323216"><ele>648.9999999999999</ele><time>2026-04-10T14:54:20.73Z</time></trkpt><trkpt lat="42.6672024" lon="12.7323318"><ele>649.0</ele><time>2026-04-10T14:54:28.65Z</time></trkpt><trkpt lat="42.6672723" lon="12.7323112"><ele>649.0</ele><time>2026-04-10T14:54:33.73Z</time></trkpt><trkpt lat="42.6673378" lon="12.73229"><ele>649.0</ele><time>2026-04-10T14:54:39.731Z</time></trkpt><trkpt lat="42.6673614" lon="12.7322069"><ele>649.0</ele><time>2026-04-10T14:54:46.741Z</time></trkpt><trkpt lat="42.6673853" lon="12.732115"><ele>648.9999999999999</ele><time>2026-04-10T14:54:57.731Z</time></trkpt><trkpt lat="42.667387" lon="12.7320245"><ele>649.0</ele><time>2026-04-10T14:55:02.632Z</time></trkpt><trkpt lat="42.6674243" lon="12.731951"><ele>648.9999999999999</ele><time>2026-04-10T14:55:08.806Z</time></trkpt><trkpt lat="42.6674443" lon="12.7318585"><ele>649.0</ele><time>2026-04-10T14:55:13.783Z</time></trkpt><trkpt lat="42.6674408" lon="12.7317711"><ele>649.0</ele><time>2026-04-10T14:55:20.268Z</time></trkpt><trkpt lat="42.6673892" lon="12.7317058"><ele>649.0</ele><time>2026-04-10T14:55:29.731Z</time></trkpt><trkpt lat="42.6673279" lon="12.7317694"><ele>649.0</ele><time>2026-04-10T14:55:35.73Z</time></trkpt><trkpt lat="42.6672811" lon="12.7318487"><ele>648.9999999999999</ele><time>2026-04-10T14:55:41.73Z</time></trkpt><trkpt lat="42.6672366" lon="12.731915"><ele>649.0</ele><time>2026-04-10T14:55:46.731Z</time></trkpt><trkpt lat="42.6671783" lon="12.7319657"><ele>648.9999999999999</ele><time>2026-04-10T14:55:52.731Z</time></trkpt><trkpt lat="42.6671262" lon="12.7320222"><ele>649.0</ele><time>2026-04-10T14:55:59.731Z</time></trkpt><trkpt lat="42.6670687" lon="12.732092"><ele>649.0</ele><time>2026-04-10T14:56:06.69Z</time></trkpt><trkpt lat="42.6670083" lon="12.7321521"><ele>649.0</ele><time>2026-04-10T14:56:12.731Z</time></trkpt><trkpt lat="42.6669508" lon="12.7321976"><ele>649.0</ele><time>2026-04-10T14:56:26.653Z</time></trkpt><trkpt lat="42.6668995" lon="12.7322532"><ele>648.9999999999999</ele><time>2026-04-10T14:56:30.639Z</time></trkpt><trkpt lat="42.6668778" lon="12.7323372"><ele>649.0</ele><time>2026-04-10T14:56:48.731Z</time></trkpt><trkpt lat="42.666824" lon="12.7323822"><ele>648.2857142857142</ele><time>2026-04-10T14:57:08.731Z</time></trkpt><trkpt lat="42.6668311" lon="12.7324856"><ele>647.5714285714286</ele><time>2026-04-10T14:57:12.731Z</time></trkpt><trkpt lat="42.6668242" lon="12.7325793"><ele>646.8571428571429</ele><time>2026-04-10T14:57:15.731Z</time></trkpt><trkpt lat="42.6667974" lon="12.732662"><ele>646.1428571428571</ele><time>2026-04-10T14:57:18.731Z</time></trkpt><trkpt lat="42.6667618" lon="12.732742"><ele>645.4285714285714</ele><time>2026-04-10T14:57:21.811Z</time></trkpt><trkpt lat="42.6667053" lon="12.7327954"><ele>644.7142857142857</ele><time>2026-04-10T14:57:24.85Z</time></trkpt><trkpt lat="42.6666377" lon="12.7328155"><ele>644.0</ele><time>2026-04-10T14:57:27.745Z</time></trkpt><trkpt lat="42.6665711" lon="12.7327953"><ele>644.0</ele><time>2026-04-10T14:57:30.731Z</time></trkpt><trkpt lat="42.6665014" lon="12.7327637"><ele>644.0</ele><time>2026-04-10T14:57:34.731Z</time></trkpt><trkpt lat="42.6664497" lon="12.7326818"><ele>644.0</ele><time>2026-04-10T14:57:43.731Z</time></trkpt><trkpt lat="42.6663926" lon="12.7326117"><ele>644.0</ele><time>2026-04-10T14:57:46.731Z</time></trkpt><trkpt lat="42.6663246" lon="12.7325608"><ele>644.0</ele><time>2026-04-10T14:57:50.731Z</time></trkpt><trkpt lat="42.6662517" lon="12.732551"><ele>644.0</ele><time>2026-04-10T14:57:53.747Z</time></trkpt><trkpt lat="42.6661715" lon="12.7325681"><ele>647.4285714285714</ele><time>2026-04-10T14:57:57.731Z</time></trkpt><trkpt lat="42.6660889" lon="12.7325432"><ele>650.8571428571429</ele><time>2026-04-10T14:58:01.734Z</time></trkpt><trkpt lat="42.6660142" lon="12.7325269"><ele>654.2857142857142</ele><time>2026-04-10T14:58:05.731Z</time></trkpt><trkpt lat="42.6659434" lon="12.7325248"><ele>657.7142857142858</ele><time>2026-04-10T14:58:09.692Z</time></trkpt><trkpt lat="42.6658712" lon="12.7325454"><ele>661.1428571428571</ele><time>2026-04-10T14:58:16.731Z</time></trkpt><trkpt lat="42.6658026" lon="12.7325547"><ele>664.5714285714286</ele><time>2026-04-10T14:58:22.725Z</time></trkpt><trkpt lat="42.6657432" lon="12.7325209"><ele>668.0</ele><time>2026-04-10T14:58:29.731Z</time></trkpt><trkpt lat="42.6657826" lon="12.7324365"><ele>668.0</ele><time>2026-04-10T14:58:34.731Z</time></trkpt><trkpt lat="42.6658595" lon="12.7324244"><ele>668.0</ele><time>2026-04-10T14:58:37.671Z</time></trkpt><trkpt lat="42.6659391" lon="12.7324598"><ele>668.0</ele><time>2026-04-10T14:58:40.794Z</time></trkpt><trkpt lat="42.6660015" lon="12.7324851"><ele>668.0</ele><time>2026-04-10T14:58:44.731Z</time></trkpt><trkpt lat="42.6660665" lon="12.7325206"><ele>668.0</ele><time>2026-04-10T14:58:49.731Z</time></trkpt><trkpt lat="42.6661441" lon="12.7325433"><ele>668.0</ele><time>2026-04-10T14:58:53.731Z</time></trkpt><trkpt lat="42.6662246" lon="12.732561"><ele>666.5714285714286</ele><time>2026-04-10T14:58:57.674Z</time></trkpt><trkpt lat="42.666299" lon="12.7325798"><ele>665.1428571428571</ele><time>2026-04-10T14:59:01.713Z</time></trkpt><trkpt lat="42.6663708" lon="12.7326059"><ele>663.7142857142858</ele><time>2026-04-10T14:59:06.667Z</time></trkpt><trkpt lat="42.6664423" lon="12.7326278"><ele>662.2857142857142</ele><time>2026-04-10T14:59:12.731Z</time></trkpt><trkpt lat="42.6665107" lon="12.7326434"><ele>660.8571428571429</ele><time>2026-04-10T14:59:17.804Z</time></trkpt><trkpt lat="42.6665753" lon="12.7326763"><ele>659.4285714285714</ele><time>2026-04-10T14:59:21.73Z</time></trkpt><trkpt lat="42.66664" lon="12.7326858"><ele>658.0</ele><time>2026-04-10T14:59:25.73Z</time></trkpt><trkpt lat="42.6667006" lon="12.7326376"><ele>658.0</ele><time>2026-04-10T14:59:31.731Z</time></trkpt><trkpt lat="42.6667448" lon="12.7325757"><ele>658.0</ele><time>2026-04-10T14:59:36.731Z</time></trkpt><trkpt lat="42.6667933" lon="12.7325015"><ele>658.0</ele><time>2026-04-10T14:59:42.731Z</time></trkpt><trkpt lat="42.6668259" lon="12.7324244"><ele>658.0</ele><time>2026-04-10T14:59:48.731Z</time></trkpt><trkpt lat="42.6668437" lon="12.732334"><ele>658.0</ele><time>2026-04-10T14:59:57.731Z</time></trkpt><trkpt lat="42.6667873" lon="12.7322684"><ele>658.0</ele><time>2026-04-10T15:00:14.731Z</time></trkpt><trkpt lat="42.6667111" lon="12.7322621"><ele>658.0</ele><time>2026-04-10T15:00:19.67Z</time></trkpt><trkpt lat="42.6666412" lon="12.732272"><ele>658.0</ele><time>2026-04-10T15:00:25.731Z</time></trkpt><trkpt lat="42.6665686" lon="12.7322928"><ele>658.0</ele><time>2026-04-10T15:00:30.73Z</time></trkpt><trkpt lat="42.6665007" lon="12.732307"><ele>658.0</ele><time>2026-04-10T15:00:34.731Z</time></trkpt><trkpt lat="42.6664348" lon="12.7323058"><ele>658.0</ele><time>2026-04-10T15:00:39.732Z</time></trkpt><trkpt lat="42.6663652" lon="12.7323103"><ele>658.0</ele><time>2026-04-10T15:00:44.73Z</time></trkpt><trkpt lat="42.6662867" lon="12.7323038"><ele>658.0</ele><time>2026-04-10T15:00:50.731Z</time></trkpt><trkpt lat="42.6662281" lon="12.7322514"><ele>658.0</ele><time>2026-04-10T15:00:57.731Z</time></trkpt><trkpt lat="42.6661997" lon="12.7321713"><ele>658.0</ele><time>2026-04-10T15:01:06.73Z</time></trkpt><trkpt lat="42.6661785" lon="12.7320825"><ele>658.0</ele><time>2026-04-10T15:01:14.73Z</time></trkpt><trkpt lat="42.6661811" lon="12.7319815"><ele>658.0</ele><time>2026-04-10T15:01:23.731Z</time></trkpt><trkpt lat="42.6661587" lon="12.7318879"><ele>658.0</ele><time>2026-04-10T15:01:33.731Z</time></trkpt><trkpt lat="42.6661557" lon="12.7318"><ele>658.0</ele><time>2026-04-10T15:01:40.794Z</time></trkpt><trkpt lat="42.6661717" lon="12.7317158"><ele>658.0</ele><time>2026-04-10T15:01:49.731Z</time></trkpt><trkpt lat="42.6661698" lon="12.7316256"><ele>658.0</ele><time>2026-04-10T15:01:57.731Z</time></trkpt><trkpt lat="42.666213" lon="12.7315511"><ele>660.4285714285714</ele><time>2026-04-10T15:02:03.731Z</time></trkpt><trkpt lat="42.6662381" lon="12.7314701"><ele>662.8571428571429</ele><time>2026-04-10T15:02:17.731Z</time></trkpt><trkpt lat="42.6662533" lon="12.7313805"><ele>665.2857142857142</ele><time>2026-04-10T15:02:38.731Z</time></trkpt><trkpt lat="42.6662877" lon="12.7313074"><ele>667.7142857142858</ele><time>2026-04-10T15:02:42.731Z</time></trkpt><trkpt lat="42.6663166" lon="12.7312229"><ele>670.1428571428571</ele><time>2026-04-10T15:02:55.73Z</time></trkpt><trkpt lat="42.666357" lon="12.7311523"><ele>672.5714285714286</ele><time>2026-04-10T15:03:04.634Z</time></trkpt><trkpt lat="42.6663866" lon="12.7310649"><ele>675.0</ele><time>2026-04-10T15:03:12.751Z</time></trkpt><trkpt lat="42.666394" lon="12.7309685"><ele>676.5714285714286</ele><time>2026-04-10T15:03:19.731Z</time></trkpt><trkpt lat="42.6663275" lon="12.7309454"><ele>678.1428571428571</ele><time>2026-04-10T15:03:28.76Z</time></trkpt><trkpt lat="42.6662634" lon="12.7309488"><ele>679.7142857142858</ele><time>2026-04-10T15:03:34.764Z</time></trkpt><trkpt lat="42.6662003" lon="12.7309533"><ele>681.2857142857142</ele><time>2026-04-10T15:03:38.804Z</time></trkpt><trkpt lat="42.666133" lon="12.7309528"><ele>682.8571428571429</ele><time>2026-04-10T15:03:43.702Z</time></trkpt><trkpt lat="42.6660688" lon="12.7309188"><ele>684.4285714285714</ele><time>2026-04-10T15:03:48.769Z</time></trkpt><trkpt lat="42.666107" lon="12.7308466"><ele>686.0</ele><time>2026-04-10T15:04:00.73Z</time></trkpt><trkpt lat="42.6661264" lon="12.7307644"><ele>687.2857142857143</ele><time>2026-04-10T15:04:12.731Z</time></trkpt><trkpt lat="42.6660887" lon="12.7306896"><ele>688.5714285714286</ele><time>2026-04-10T15:04:22.731Z</time></trkpt><trkpt lat="42.6660204" lon="12.7307163"><ele>689.8571428571429</ele><time>2026-04-10T15:04:36.736Z</time></trkpt><trkpt lat="42.6659574" lon="12.7307473"><ele>691.1428571428571</ele><time>2026-04-10T15:04:41.698Z</time></trkpt><trkpt lat="42.665892" lon="12.7307347"><ele>692.4285714285714</ele><time>2026-04-10T15:04:46.731Z</time></trkpt><trkpt lat="42.6659492" lon="12.7306861"><ele>693.7142857142858</ele><time>2026-04-10T15:05:05.818Z</time></trkpt><trkpt lat="42.665934" lon="12.7305853"><ele>695.0</ele><time>2026-04-10T15:05:10.731Z</time></trkpt><trkpt lat="42.6658779" lon="12.7305372"><ele>695.0000000000001</ele><time>2026-04-10T15:05:14.731Z</time></trkpt><trkpt lat="42.6658097" lon="12.7305295"><ele>695.0</ele><time>2026-04-10T15:05:18.731Z</time></trkpt><trkpt lat="42.6657347" lon="12.7305462"><ele>695.0</ele><time>2026-04-10T15:05:23.731Z</time></trkpt><trkpt lat="42.6656774" lon="12.7305817"><ele>695.0</ele><time>2026-04-10T15:05:28.731Z</time></trkpt><trkpt lat="42.6656352" lon="12.7306533"><ele>695.0</ele><time>2026-04-10T15:05:34.716Z</time></trkpt><trkpt lat="42.6656001" lon="12.7307323"><ele>695.0000000000001</ele><time>2026-04-10T15:05:40.731Z</time></trkpt><trkpt lat="42.6655665" lon="12.7308114"><ele>695.0</ele><time>2026-04-10T15:05:47.809Z</time></trkpt><trkpt lat="42.6656244" lon="12.7308804"><ele>695.0000000000001</ele><time>2026-04-10T15:05:52.731Z</time></trkpt><trkpt lat="42.6656981" lon="12.730908"><ele>695.0</ele><time>2026-04-10T15:05:57.717Z</time></trkpt><trkpt lat="42.6657628" lon="12.7309347"><ele>695.0</ele><time>2026-04-10T15:06:01.731Z</time></trkpt><trkpt lat="42.6658376" lon="12.7309467"><ele>695.0</ele><time>2026-04-10T15:06:07.731Z</time></trkpt><trkpt lat="42.6659055" lon="12.7309683"><ele>695.0</ele><time>2026-04-10T15:06:13.731Z</time></trkpt><trkpt lat="42.6658595" lon="12.7310318"><ele>695.0000000000001</ele><time>2026-04-10T15:06:21.784Z</time></trkpt><trkpt lat="42.6657867" lon="12.7310123"><ele>695.0</ele><time>2026-04-10T15:06:26.73Z</time></trkpt><trkpt lat="42.6657182" lon="12.7310209"><ele>695.0000000000001</ele><time>2026-04-10T15:06:32.698Z</time></trkpt><trkpt lat="42.6656498" lon="12.7310134"><ele>695.0</ele><time>2026-04-10T15:06:39.731Z</time></trkpt><trkpt lat="42.6655922" lon="12.7310519"><ele>695.0</ele><time>2026-04-10T15:06:45.731Z</time></trkpt><trkpt lat="42.6655522" lon="12.7311262"><ele>695.0</ele><time>2026-04-10T15:06:51.73Z</time></trkpt><trkpt lat="42.6655213" lon="12.7312059"><ele>695.0</ele><time>2026-04-10T15:06:57.732Z</time></trkpt><trkpt lat="42.665503" lon="12.731298"><ele>695.0000000000001</ele><time>2026-04-10T15:07:03.778Z</time></trkpt><trkpt lat="42.665489" lon="12.7313887"><ele>695.0</ele><time>2026-04-10T15:07:09.715Z</time></trkpt><trkpt lat="42.6654709" lon="12.7314723"><ele>692.7142857142858</ele><time>2026-04-10T15:07:15.731Z</time></trkpt><trkpt lat="42.6654633" lon="12.7315683"><ele>690.4285714285714</ele><time>2026-04-10T15:07:19.812Z</time></trkpt><trkpt lat="42.6654726" lon="12.7316584"><ele>688.1428571428571</ele><time>2026-04-10T15:07:25.731Z</time></trkpt><trkpt lat="42.665465" lon="12.7317591"><ele>685.8571428571429</ele><time>2026-04-10T15:07:31.808Z</time></trkpt><trkpt lat="42.6654368" lon="12.7318505"><ele>683.5714285714286</ele><time>2026-04-10T15:07:37.731Z</time></trkpt><trkpt lat="42.6654285" lon="12.7319432"><ele>681.2857142857143</ele><time>2026-04-10T15:07:42.731Z</time></trkpt><trkpt lat="42.6654213" lon="12.7320459"><ele>679.0</ele><time>2026-04-10T15:07:48.73Z</time></trkpt><trkpt lat="42.6654586" lon="12.7321199"><ele>679.0</ele><time>2026-04-10T15:07:52.731Z</time></trkpt><trkpt lat="42.6655306" lon="12.7321364"><ele>679.0</ele><time>2026-04-10T15:07:57.731Z</time></trkpt><trkpt lat="42.6656016" lon="12.7321465"><ele>679.0</ele><time>2026-04-10T15:08:02.731Z</time></trkpt><trkpt lat="42.665667" lon="12.7321304"><ele>679.0</ele><time>2026-04-10T15:08:08.731Z</time></trkpt><trkpt lat="42.6657221" lon="12.732061"><ele>679.0</ele><time>2026-04-10T15:08:14.73Z</time></trkpt><trkpt lat="42.665771" lon="12.7319848"><ele>679.0</ele><time>2026-04-10T15:08:20.731Z</time></trkpt><trkpt lat="42.6658108" lon="12.7319051"><ele>679.0</ele><time>2026-04-10T15:08:25.731Z</time></trkpt><trkpt lat="42.6658172" lon="12.7317963"><ele>679.0</ele><time>2026-04-10T15:08:30.743Z</time></trkpt><trkpt lat="42.6657982" lon="12.7316907"><ele>679.0</ele><time>2026-04-10T15:08:35.731Z</time></trkpt><trkpt lat="42.665767" lon="12.731614"><ele>679.0</ele><time>2026-04-10T15:08:39.798Z</time></trkpt><trkpt lat="42.6657165" lon="12.7315369"><ele>679.0</ele><time>2026-04-10T15:08:47.826Z</time></trkpt><trkpt lat="42.6656917" lon="12.7314409"><ele>679.0</ele><time>2026-04-10T15:08:53.731Z</time></trkpt><trkpt lat="42.6657322" lon="12.7313712"><ele>679.0</ele><time>2026-04-10T15:08:58.731Z</time></trkpt><trkpt lat="42.6657872" lon="12.7313048"><ele>679.0</ele><time>2026-04-10T15:09:04.73Z</time></trkpt><trkpt lat="42.6658429" lon="12.7312638"><ele>679.0</ele><time>2026-04-10T15:09:10.731Z</time></trkpt><trkpt lat="42.6659138" lon="12.7312468"><ele>679.0</ele><time>2026-04-10T15:09:17.731Z</time></trkpt><trkpt lat="42.6659787" lon="12.7312128"><ele>679.0</ele><time>2026-04-10T15:09:24.741Z</time></trkpt><trkpt lat="42.6660354" lon="12.7312589"><ele>679.0</ele><time>2026-04-10T15:09:32.636Z</time></trkpt><trkpt lat="42.6660345" lon="12.7313467"><ele>679.0</ele><time>2026-04-10T15:09:36.731Z</time></trkpt><trkpt lat="42.6660268" lon="12.7314422"><ele>679.0</ele><time>2026-04-10T15:09:41.731Z</time></trkpt><trkpt lat="42.6660058" lon="12.7315403"><ele>679.0</ele><time>2026-04-10T15:09:47.731Z</time></trkpt><trkpt lat="42.6660064" lon="12.7316426"><ele>679.0</ele><time>2026-04-10T15:09:52.731Z</time></trkpt><trkpt lat="42.6660181" lon="12.7317436"><ele>679.0</ele><time>2026-04-10T15:09:57.731Z</time></trkpt><trkpt lat="42.6660181" lon="12.7318408"><ele>679.0</ele><time>2026-04-10T15:10:01.731Z</time></trkpt><trkpt lat="42.6660285" lon="12.7319257"><ele>679.0</ele><time>2026-04-10T15:10:04.794Z</time></trkpt><trkpt lat="42.6660361" lon="12.7320144"><ele>679.0</ele><time>2026-04-10T15:10:07.731Z</time></trkpt><trkpt lat="42.6660492" lon="12.7321138"><ele>679.0</ele><time>2026-04-10T15:10:10.805Z</time></trkpt><trkpt lat="42.6660457" lon="12.7322202"><ele>679.0</ele><time>2026-04-10T15:10:14.813Z</time></trkpt><trkpt lat="42.6659731" lon="12.7322022"><ele>679.0</ele><time>2026-04-10T15:10:18.731Z</time></trkpt><trkpt lat="42.6659186" lon="12.7321389"><ele>679.0</ele><time>2026-04-10T15:10:23.803Z</time></trkpt><trkpt lat="42.6658941" lon="12.7320499"><ele>679.0</ele><time>2026-04-10T15:10:28.731Z</time></trkpt><trkpt lat="42.665894" lon="12.7319469"><ele>679.0</ele><time>2026-04-10T15:10:32.731Z</time></trkpt><trkpt lat="42.6659109" lon="12.7318335"><ele>679.0</ele><time>2026-04-10T15:10:37.731Z</time></trkpt><trkpt lat="42.665939" lon="12.7317566"><ele>679.0</ele><time>2026-04-10T15:10:42.731Z</time></trkpt><trkpt lat="42.6659647" lon="12.731655"><ele>679.0</ele><time>2026-04-10T15:10:48.825Z</time></trkpt><trkpt lat="42.665972" lon="12.7315599"><ele>679.0</ele><time>2026-04-10T15:10:54.73Z</time></trkpt><trkpt lat="42.6659539" lon="12.7314711"><ele>679.0</ele><time>2026-04-10T15:11:01.731Z</time></trkpt><trkpt lat="42.665893" lon="12.7315164"><ele>679.0</ele><time>2026-04-10T15:11:05.731Z</time></trkpt><trkpt lat="42.6658664" lon="12.7315987"><ele>679.0</ele><time>2026-04-10T15:11:08.731Z</time></trkpt><trkpt lat="42.6658458" lon="12.7317254"><ele>679.0</ele><time>2026-04-10T15:11:12.731Z</time></trkpt><trkpt lat="42.66583" lon="12.7318238"><ele>679.0</ele><time>2026-04-10T15:11:15.801Z</time></trkpt><trkpt lat="42.6658281" lon="12.7319271"><ele>679.0</ele><time>2026-04-10T15:11:18.731Z</time></trkpt><trkpt lat="42.6658006" lon="12.7320335"><ele>677.4285714285714</ele><time>2026-04-10T15:11:22.794Z</time></trkpt><trkpt lat="42.6657713" lon="12.7321186"><ele>675.8571428571429</ele><time>2026-04-10T15:11:27.807Z</time></trkpt><trkpt lat="42.6657193" lon="12.7321837"><ele>674.2857142857142</ele><time>2026-04-10T15:11:34.801Z</time></trkpt><trkpt lat="42.6656688" lon="12.7322606"><ele>672.7142857142858</ele><time>2026-04-10T15:11:41.732Z</time></trkpt><trkpt lat="42.6656357" lon="12.7323438"><ele>671.1428571428571</ele><time>2026-04-10T15:11:46.736Z</time></trkpt><trkpt lat="42.6656109" lon="12.732429"><ele>669.5714285714286</ele><time>2026-04-10T15:11:51.673Z</time></trkpt><trkpt lat="42.6656114" lon="12.7325307"><ele>668.0</ele><time>2026-04-10T15:11:56.731Z</time></trkpt><trkpt lat="42.6655776" lon="12.7326055"><ele>668.0</ele><time>2026-04-10T15:12:04.73Z</time></trkpt><trkpt lat="42.6655569" lon="12.7325035"><ele>668.0</ele><time>2026-04-10T15:12:11.731Z</time></trkpt><trkpt lat="42.6655793" lon="12.7324221"><ele>668.0</ele><time>2026-04-10T15:12:15.731Z</time></trkpt></trkseg></trk></gpx>